Terminal Aerodrome Forecast
Issued by NWS Twin Cities, MN

Home | Current Version | Previous Version | Graphics & Text | Print | Product List | Glossary On
Versions: 1 2 3 4 5 6 7 8 9 10 11 12 13 14 15 16 17 18 19 20 21 22 23 24 25
000
FTUS43 KMPX 200500
TAFMSP
TAF
KMSP 200529Z 2006/2112 00000KT P6SM SCT250
     FM200800 VRB02KT 5SM BR SCT006
      TEMPO 2010/2013 2SM BR BKN006
     FM201400 14008KT P6SM SCT050 BKN250
     FM210600 13007KT P6SM BKN070 PROB30 2106/2112 4SM TSRA
      OVC050CB=

USA.gov is the U.S. government's official web portal to all federal, state and local government web resources and services.